Aérodrome :
LOGIN :

S'inscrire | Disclaimer

   EN    FR    IT 

 










Légende :    VFR   VFR Marginal   IFR   IFR Intensif   IFR Très Intensif
Visi : 
Plafond : 
>= 8 km
>= 3000ft
5 à 8 km
1000 à 3000 ft
1500m à 5 km
500 à 1000 ft
800 à 1500m
200 à 500 ft
< 800m
< 200 ft
Symboles :   Orages  Brouillard  Fortes neiges  Fortes précipitations  Vent > 20 kt
SIGMETs :   Divers  Orages  Givrage  Turbulence  Onde Orograph.  Cendres Volcan.






- Altitude de l'aérodrome : 242 ft
- Code IATA : DUB


EIDW - Dublin

DERNIER METAR :
  • 302330Z 28008KT CAVOK 04/03 Q1028 NOSIG

METARs EXPIRÉS :
  • 302300Z 29010KT 9999 FEW030 SCT090 03/03 Q1028 NOSIG
  • 302230Z 29009KT 9999 FEW030 SCT090 03/02 Q1027 NOSIG
  • 302200Z 28009KT 9999 FEW020 03/02 Q1027 NOSIG
  • 302130Z 30007KT 9999 FEW022 03/02 Q1027 NOSIG
  • 302100Z 31010KT 9999 FEW015 04/03 Q1027 NOSIG

TAF TAF EIDW
Valide du 01 à 00h jusqu'au 02 à 00h UTC


302300Z 0100/0124 30010KT 9999 FEW018 SCT030
BECMG 0107/0109 26007KT
TEMPO 0110/0124 BKN012
PROB40
TEMPO 0111/0124 3000 -DZ BKN007



MET'MAP, la Météo Aéronautique d'un coup d'oeil ! - Copyright ORBIFLY Décembre 2007 - Disclaimer

ORBIFLY MET'MAP TEAM :

Programmation & Développement : Alexandra Zaïnal
Sur une idée originale de : Baudouin d'Aumeries
Assistance à la programmation : Marc-Olivier Méhu
Soutien technique & logistique : Manuel Goepfert

Contact : metmap@orbifly.com




SOURCES & CREDITS :

   NOAA